Time;durP1;ratioP1;P1;durP2;ratioP2;P2;SDS_P1;SDS_P2;PMS_P1;PMS_P2;Temp;Humidity;BMP_temperature;BMP_pressure;BME280_temperature;BME280_humidity;BME280_pressure;Samples;Min_cycle;Max_cycle;Signal;HPM_P1;HPM_P2
2023/01/18 00:01:53;;;;;;;13.48;6.30;;;-0.70;99.90;;;;;;5045172;28;20040;-63
2023/01/18 00:04:19;;;;;;;9.60;6.15;;;-0.70;99.90;;;;;;5045041;28;20043;-62
2023/01/18 00:06:44;;;;;;;10.45;6.28;;;-0.80;99.90;;;;;;5048671;28;20511;-61
2023/01/18 00:09:11;;;;;;;9.63;5.82;;;-0.80;99.90;;;;;;5048332;28;20045;-62
2023/01/18 00:11:36;;;;;;;11.02;6.28;;;-0.80;99.90;;;;;;5050792;28;20104;-63
2023/01/18 00:14:02;;;;;;;11.73;6.00;;;-0.80;99.90;;;;;;5046155;28;20068;-62
2023/01/18 00:16:29;;;;;;;11.45;6.00;;;-0.80;99.90;;;;;;5047851;28;20056;-63
2023/01/18 00:18:59;;;;;;;12.60;5.25;;;-0.80;99.90;;;;;;5049611;28;20618;-62
2023/01/18 00:21:26;;;;;;;15.70;6.53;;;-0.70;99.90;;;;;;5047001;28;20119;-64
2023/01/18 00:23:54;;;;;;;10.68;6.15;;;-0.80;99.90;;;;;;5050354;28;20131;-62
2023/01/18 00:26:19;;;;;;;9.38;6.80;;;-0.90;99.90;;;;;;5048935;28;20037;-62
2023/01/18 00:28:45;;;;;;;11.82;6.00;;;-0.90;99.90;;;;;;5049675;28;20270;-63
2023/01/18 00:31:19;;;;;;;9.90;6.10;;;-0.90;99.90;;;;;;5049091;28;20083;-61
2023/01/18 00:33:46;;;;;;;11.63;6.13;;;-0.90;99.90;;;;;;5049645;28;20681;-62
2023/01/18 00:36:14;;;;;;;10.75;6.43;;;-0.90;99.90;;;;;;5048140;28;20045;-63
2023/01/18 00:38:39;;;;;;;11.02;6.80;;;-0.90;99.90;;;;;;5048528;28;20049;-62
2023/01/18 00:41:05;;;;;;;9.90;5.43;;;-1.00;99.90;;;;;;5049966;28;20096;-62
2023/01/18 00:43:40;;;;;;;11.15;6.75;;;-1.00;99.90;;;;;;5046819;28;20053;-63
2023/01/18 00:46:10;;;;;;;10.07;6.57;;;-1.00;99.90;;;;;;5049799;28;20051;-63
2023/01/18 00:48:37;;;;;;;9.38;6.18;;;-1.00;99.90;;;;;;5049683;28;20045;-62
2023/01/18 00:51:04;;;;;;;9.35;5.75;;;-1.00;99.90;;;;;;5049030;28;20041;-62
2023/01/18 00:53:29;;;;;;;10.73;6.63;;;-1.00;99.90;;;;;;5048784;28;20041;-62
2023/01/18 00:55:55;;;;;;;11.88;5.88;;;-1.00;99.90;;;;;;5049480;28;20041;-63
2023/01/18 00:58:21;;;;;;;8.80;5.90;;;-1.10;99.90;;;;;;5047764;28;20048;-62
2023/01/18 01:00:51;;;;;;;9.98;6.28;;;-1.10;99.90;;;;;;5048071;28;20052;-62
2023/01/18 01:03:17;;;;;;;10.07;6.03;;;-1.10;99.90;;;;;;5053413;28;20106;-63
2023/01/18 01:08:27;;;;;;;14.05;6.35;;;-1.10;99.90;;;;;;5048110;28;20056;-63
2023/01/18 01:11:11;;;;;;;12.38;6.47;;;-1.10;99.90;;;;;;5051150;28;20033;-61
2023/01/18 01:27:20;;;;;;;9.75;6.00;;;-1.10;99.90;;;;;;5052044;28;20079;-64
2023/01/18 01:29:45;;;;;;;8.82;5.97;;;-1.20;99.90;;;;;;5052126;28;20045;-62
2023/01/18 01:32:12;;;;;;;9.27;5.85;;;-1.20;99.90;;;;;;5050825;28;20043;-62
2023/01/18 01:34:37;;;;;;;10.73;5.70;;;-1.20;99.90;;;;;;5051297;28;20041;-61
2023/01/18 01:37:04;;;;;;;8.48;5.70;;;-1.20;99.90;;;;;;5051081;28;20045;-62
2023/01/18 01:39:29;;;;;;;8.40;5.30;;;-1.30;99.90;;;;;;5051915;28;20132;-62
2023/01/18 01:41:55;;;;;;;8.18;5.65;;;-1.10;99.90;;;;;;5052615;28;21093;-61
2023/01/18 01:44:23;;;;;;;10.18;5.72;;;-1.30;99.90;;;;;;5034908;28;20056;-62
2023/01/18 01:47:00;;;;;;;11.80;5.80;;;-1.30;99.90;;;;;;5049901;28;20045;-62
2023/01/18 01:49:31;;;;;;;10.82;6.20;;;-1.30;99.90;;;;;;5051860;28;20045;-62
2023/01/18 01:52:07;;;;;;;10.90;6.50;;;-1.30;99.90;;;;;;5049151;28;20166;-62
2023/01/18 01:54:40;;;;;;;8.45;5.18;;;-1.30;99.90;;;;;;5053473;28;20045;-60
2023/01/18 01:57:12;;;;;;;8.77;5.43;;;-1.40;99.90;;;;;;5051035;28;20041;-63
2023/01/18 01:59:43;;;;;;;10.40;4.82;;;-1.30;99.90;;;;;;5051400;28;20091;-63
2023/01/18 02:02:10;;;;;;;11.43;6.13;;;-1.30;99.90;;;;;;5049675;28;20056;-62
2023/01/18 02:04:36;;;;;;;9.55;5.45;;;-1.30;99.90;;;;;;5048982;28;20037;-62
2023/01/18 02:07:02;;;;;;;12.43;6.45;;;-1.30;99.90;;;;;;5050496;28;20044;-62
2023/01/18 02:09:28;;;;;;;10.93;6.20;;;-1.40;99.90;;;;;;5033244;28;20049;-63
2023/01/18 02:11:54;;;;;;;13.00;6.65;;;-1.40;99.90;;;;;;5049696;28;20460;-61
2023/01/18 02:14:24;;;;;;;10.68;7.00;;;-1.40;99.90;;;;;;5046243;28;20041;-63
2023/01/18 02:17:14;;;;;;;10.90;6.43;;;-1.40;99.90;;;;;;5049706;28;20277;-62
2023/01/18 02:20:01;;;;;;;8.73;5.65;;;-1.40;99.90;;;;;;5051270;28;22608;-62
2023/01/18 02:23:08;;;;;;;9.45;5.90;;;-1.40;99.90;;;;;;5047097;28;20558;-63
2023/01/18 02:25:43;;;;;;;9.48;6.38;;;-1.50;99.90;;;;;;5049843;28;20045;-61
2023/01/18 02:28:21;;;;;;;10.38;6.35;;;-1.50;99.90;;;;;;5052370;28;20106;-62
2023/01/18 02:31:13;;;;;;;10.40;6.18;;;-1.50;99.90;;;;;;5050271;28;20051;-62
2023/01/18 02:33:45;;;;;;;12.50;6.25;;;-1.50;99.90;;;;;;5050812;28;20049;-63
2023/01/18 02:36:30;;;;;;;9.35;6.28;;;-1.50;99.90;;;;;;5048510;28;20064;-66
2023/01/18 02:39:05;;;;;;;11.02;6.82;;;-0.70;99.90;;;;;;5050548;28;20072;-62
2023/01/18 02:47:22;;;;;;;10.77;6.45;;;-1.60;99.90;;;;;;5049982;28;20053;-62
2023/01/18 02:49:47;;;;;;;11.52;6.28;;;-1.60;99.90;;;;;;5050368;28;20069;-62
2023/01/18 02:52:46;;;;;;;12.00;6.05;;;-1.70;99.90;;;;;;5032534;28;20056;-62
2023/01/18 02:55:23;;;;;;;10.32;6.35;;;-1.70;99.90;;;;;;5047010;28;20067;-63
2023/01/18 02:57:48;;;;;;;10.40;6.70;;;-1.60;99.90;;;;;;5050409;28;20052;-62
2023/01/18 03:00:17;;;;;;;10.20;5.68;;;-1.50;99.90;;;;;;5047355;28;20053;-62
2023/01/18 03:02:47;;;;;;;10.13;6.22;;;-1.50;99.90;;;;;;5049250;28;20040;-61
2023/01/18 03:05:13;;;;;;;10.95;6.35;;;-1.40;99.90;;;;;;5047238;28;20053;-62
2023/01/18 03:07:41;;;;;;;9.23;6.45;;;-1.40;99.90;;;;;;5048794;28;21083;-62
2023/01/18 03:10:09;;;;;;;12.48;6.00;;;-1.40;99.90;;;;;;5049187;28;20056;-61
2023/01/18 03:12:50;;;;;;;10.10;6.30;;;-1.30;99.90;;;;;;5049126;28;20082;-62
2023/01/18 03:15:19;;;;;;;10.43;6.60;;;-1.30;99.90;;;;;;5046625;28;20096;-63
2023/01/18 03:17:53;;;;;;;10.07;5.60;;;-1.30;99.90;;;;;;5034368;28;20048;-64
2023/01/18 03:20:27;;;;;;;10.50;6.60;;;-1.20;99.90;;;;;;5024085;28;20050;-62
2023/01/18 03:26:04;;;;;;;8.68;6.40;;;-1.20;99.90;;;;;;5023478;28;20053;-63
2023/01/18 03:34:54;;;;;;;10.40;6.35;;;-1.20;99.90;;;;;;5044880;28;20048;-62
2023/01/18 03:37:31;;;;;;;11.77;6.45;;;-1.20;99.90;;;;;;5048154;28;20050;-62
2023/01/18 03:40:02;;;;;;;11.60;6.32;;;-1.30;99.90;;;;;;5049037;28;20041;-62
2023/01/18 03:42:32;;;;;;;12.65;6.40;;;-1.30;99.90;;;;;;5046088;28;20064;-62
2023/01/18 03:45:07;;;;;;;13.25;6.90;;;-1.30;99.90;;;;;;5043826;28;20129;-62
2023/01/18 03:47:33;;;;;;;12.73;6.03;;;-1.30;99.90;;;;;;5045943;28;20045;-62
2023/01/18 03:49:59;;;;;;;9.90;6.00;;;-1.40;99.90;;;;;;5047885;28;20485;-62
2023/01/18 03:52:30;;;;;;;10.75;7.25;;;-1.40;99.90;;;;;;5047163;28;20088;-62
2023/01/18 03:55:06;;;;;;;9.40;5.82;;;-1.40;99.90;;;;;;5049360;28;20067;-62
2023/01/18 03:57:37;;;;;;;9.07;6.50;;;-1.40;99.90;;;;;;5047195;28;20053;-62
2023/01/18 04:00:07;;;;;;;12.00;6.53;;;-1.40;99.90;;;;;;5046564;28;20083;-62
2023/01/18 04:02:33;;;;;;;15.50;6.15;;;-1.40;99.90;;;;;;5032089;28;20040;-63
2023/01/18 04:05:02;;;;;;;11.77;6.20;;;-1.40;99.90;;;;;;5047843;28;20045;-63
2023/01/18 04:07:30;;;;;;;10.88;6.28;;;-1.40;99.90;;;;;;5048355;28;20049;-63
2023/01/18 04:09:59;;;;;;;10.27;6.65;;;-1.40;99.90;;;;;;5049566;28;20051;-64
2023/01/18 04:12:25;;;;;;;9.73;5.97;;;-1.40;99.90;;;;;;5047997;28;20511;-62
2023/01/18 04:14:51;;;;;;;23.40;7.45;;;-1.40;99.90;;;;;;5047823;28;20064;-63
2023/01/18 04:17:17;;;;;;;10.88;5.57;;;-1.40;99.90;;;;;;5046743;28;20078;-63
2023/01/18 04:19:43;;;;;;;11.32;6.20;;;-1.40;99.90;;;;;;5047958;28;20051;-66
2023/01/18 04:22:09;;;;;;;14.48;7.10;;;-1.60;99.90;;;;;;5044334;28;20041;-64
2023/01/18 04:24:35;;;;;;;10.60;6.50;;;-1.40;99.90;;;;;;5050251;28;20045;-61
2023/01/18 04:27:02;;;;;;;10.18;6.22;;;-1.40;99.90;;;;;;5048138;28;20049;-61
2023/01/18 04:29:28;;;;;;;12.68;6.40;;;-1.40;99.90;;;;;;5047541;28;20060;-62
2023/01/18 04:31:53;;;;;;;12.98;6.75;;;-1.40;99.90;;;;;;5048694;28;20658;-62
2023/01/18 04:34:22;;;;;;;11.10;6.30;;;-1.30;99.90;;;;;;5048765;28;20057;-62
2023/01/18 04:36:49;;;;;;;9.20;6.20;;;-1.30;99.90;;;;;;5048978;28;20049;-63
2023/01/18 04:39:15;;;;;;;13.07;6.43;;;-1.30;99.90;;;;;;5052259;28;20041;-62
2023/01/18 04:41:41;;;;;;;10.18;4.93;;;-1.30;99.90;;;;;;5053629;28;20053;-62
2023/01/18 04:44:07;;;;;;;11.38;6.22;;;-1.30;99.90;;;;;;5051459;28;20505;-63
2023/01/18 04:46:33;;;;;;;12.50;6.43;;;-1.30;99.90;;;;;;5048950;28;20109;-60
2023/01/18 04:48:59;;;;;;;11.38;6.22;;;-1.30;99.90;;;;;;5053149;28;20049;-62
2023/01/18 04:51:26;;;;;;;9.63;6.28;;;-1.30;99.90;;;;;;5052232;28;20075;-63
2023/01/18 04:53:52;;;;;;;10.02;5.90;;;-1.30;99.90;;;;;;5051832;28;20060;-64
2023/01/18 04:56:18;;;;;;;9.20;6.20;;;-1.00;99.90;;;;;;5052162;28;20566;-64
2023/01/18 04:58:44;;;;;;;11.82;5.78;;;-1.30;99.90;;;;;;5051373;28;20551;-63
2023/01/18 05:01:15;;;;;;;10.13;5.72;;;-1.30;99.90;;;;;;5053278;28;20162;-62
2023/01/18 05:03:41;;;;;;;11.00;6.43;;;-1.30;99.90;;;;;;5035707;28;20064;-63
2023/01/18 05:06:09;;;;;;;13.73;5.63;;;-1.30;99.90;;;;;;5053993;28;20037;-63
2023/01/18 05:08:35;;;;;;;13.80;6.68;;;-1.40;99.90;;;;;;5051193;28;20415;-62
2023/01/18 05:11:05;;;;;;;10.13;6.57;;;-1.40;99.90;;;;;;5053437;28;20063;-62
2023/01/18 05:13:32;;;;;;;9.55;6.07;;;-1.40;99.90;;;;;;5049797;28;20044;-63
2023/01/18 05:15:59;;;;;;;10.93;6.50;;;-1.40;99.90;;;;;;5053780;28;20064;-62
2023/01/18 05:18:25;;;;;;;9.88;6.68;;;-1.40;99.90;;;;;;5051934;28;20084;-64
2023/01/18 05:20:50;;;;;;;9.93;7.03;;;-1.40;99.90;;;;;;5051887;28;20048;-64
2023/01/18 05:23:16;;;;;;;10.45;6.55;;;-1.50;99.90;;;;;;5034520;28;20057;-63
2023/01/18 05:25:42;;;;;;;9.95;6.68;;;-1.40;99.90;;;;;;5050995;28;20041;-62
2023/01/18 05:28:09;;;;;;;9.75;6.45;;;-1.40;99.90;;;;;;5052002;28;20051;-62
2023/01/18 05:30:40;;;;;;;11.45;6.55;;;-1.40;99.90;;;;;;5051623;28;20045;-62
2023/01/18 05:33:06;;;;;;;11.95;6.18;;;-1.40;99.90;;;;;;5052492;28;20954;-63
2023/01/18 05:35:32;;;;;;;11.10;6.32;;;-1.40;99.90;;;;;;5051668;28;20509;-65
2023/01/18 05:37:57;;;;;;;10.75;6.10;;;-1.40;99.90;;;;;;5050962;28;20128;-63
2023/01/18 05:40:23;;;;;;;10.23;6.55;;;-1.40;99.90;;;;;;5051671;28;20166;-62
2023/01/18 05:42:49;;;;;;;11.90;5.75;;;-1.20;99.90;;;;;;5050190;28;20036;-62
2023/01/18 05:45:14;;;;;;;13.23;5.85;;;-1.40;99.90;;;;;;5052385;28;20052;-62
2023/01/18 05:47:40;;;;;;;13.30;6.43;;;-1.40;99.90;;;;;;5050365;28;20043;-64
2023/01/18 05:50:06;;;;;;;10.60;6.45;;;-1.40;99.90;;;;;;5050853;28;20079;-63
2023/01/18 05:52:32;;;;;;;11.82;6.13;;;-1.40;99.90;;;;;;5033594;28;20106;-64
2023/01/18 05:54:58;;;;;;;11.50;6.47;;;-1.40;99.90;;;;;;5051879;28;20524;-63
2023/01/18 05:57:24;;;;;;;11.73;6.13;;;-1.40;99.90;;;;;;5047388;28;20053;-63
2023/01/18 05:59:50;;;;;;;10.65;5.70;;;-1.30;99.90;;;;;;5047748;28;20103;-62
2023/01/18 06:02:17;;;;;;;12.80;6.68;;;-1.40;99.90;;;;;;5050085;28;20045;-62
2023/01/18 06:04:43;;;;;;;13.60;7.43;;;-1.40;99.90;;;;;;5049501;28;20053;-64
2023/01/18 06:07:09;;;;;;;12.45;7.43;;;-1.50;99.90;;;;;;5050054;28;20064;-62
2023/01/18 06:09:35;;;;;;;10.15;6.05;;;-1.50;99.90;;;;;;5049766;28;20132;-62
2023/01/18 06:12:02;;;;;;;12.27;6.38;;;-1.50;99.90;;;;;;5049292;28;20592;-62
2023/01/18 06:14:28;;;;;;;13.85;7.72;;;-1.50;99.90;;;;;;5050786;28;20033;-63
2023/01/18 06:16:53;;;;;;;13.35;7.75;;;-1.60;99.90;;;;;;5046861;28;20132;-67
2023/01/18 06:19:19;;;;;;;12.02;6.60;;;-1.60;99.90;;;;;;5049831;28;20520;-64
2023/01/18 06:21:46;;;;;;;16.17;7.68;;;-1.60;99.90;;;;;;5049984;28;20049;-63
2023/01/18 06:24:12;;;;;;;15.55;7.63;;;-1.70;99.90;;;;;;5049416;28;20652;-62
2023/01/18 06:26:38;;;;;;;14.63;7.25;;;-1.70;99.90;;;;;;5049020;28;20055;-64
2023/01/18 06:29:04;;;;;;;12.20;6.85;;;-1.70;99.90;;;;;;5031172;28;20101;-62
2023/01/18 06:31:30;;;;;;;12.75;7.15;;;-1.60;99.90;;;;;;5049694;28;20045;-63
2023/01/18 06:33:55;;;;;;;15.77;7.68;;;-1.70;99.90;;;;;;5050865;28;20037;-64
2023/01/18 06:36:21;;;;;;;12.63;7.65;;;-1.70;99.90;;;;;;5050703;28;20060;-63
2023/01/18 06:38:47;;;;;;;12.45;7.65;;;-1.70;99.90;;;;;;5049530;28;20052;-63
2023/01/18 06:41:14;;;;;;;12.68;7.68;;;-1.70;99.90;;;;;;5052184;28;20045;-63
2023/01/18 06:43:39;;;;;;;12.57;7.43;;;-1.70;99.90;;;;;;5050180;28;20053;-64
2023/01/18 06:46:08;;;;;;;11.75;6.78;;;-1.70;99.90;;;;;;5050132;28;20047;-64
2023/01/18 06:48:34;;;;;;;12.70;8.35;;;-1.70;99.90;;;;;;5049992;28;20527;-64
2023/01/18 06:51:00;;;;;;;10.75;6.95;;;-1.70;99.90;;;;;;5050506;28;20051;-63
2023/01/18 06:53:26;;;;;;;13.05;7.50;;;-1.70;99.90;;;;;;5050317;28;20037;-64
2023/01/18 06:55:53;;;;;;;13.48;7.88;;;-1.70;99.90;;;;;;5050389;28;20045;-64
2023/01/18 06:58:19;;;;;;;12.48;7.60;;;-1.70;99.90;;;;;;5049407;28;20053;-64
2023/01/18 07:00:44;;;;;;;13.73;7.13;;;-1.70;99.90;;;;;;5047462;28;20055;-64
2023/01/18 07:03:10;;;;;;;17.73;8.35;;;-1.60;99.90;;;;;;5050038;28;20120;-65
2023/01/18 07:05:36;;;;;;;13.55;7.57;;;-1.60;99.90;;;;;;5049891;28;20107;-64
2023/01/18 07:08:02;;;;;;;13.95;7.28;;;-1.60;99.90;;;;;;5050108;28;20040;-64
2023/01/18 07:10:27;;;;;;;14.60;7.72;;;-1.60;99.90;;;;;;5051683;28;20060;-64
2023/01/18 07:12:53;;;;;;;13.13;8.23;;;-1.60;99.90;;;;;;5046721;28;20045;-64
2023/01/18 07:15:19;;;;;;;13.27;8.10;;;-1.60;99.90;;;;;;5048142;28;20108;-64
2023/01/18 07:17:44;;;;;;;13.77;7.53;;;-1.50;99.90;;;;;;5048119;28;20454;-67
2023/01/18 07:20:14;;;;;;;13.45;7.70;;;-1.50;99.90;;;;;;5051721;28;20045;-63
2023/01/18 07:22:40;;;;;;;13.00;7.13;;;-1.50;99.90;;;;;;5049872;28;20064;-64
2023/01/18 07:25:06;;;;;;;13.40;7.28;;;-1.50;99.90;;;;;;5048496;28;20057;-65
2023/01/18 07:27:32;;;;;;;11.38;6.82;;;-1.50;99.90;;;;;;5050910;28;20448;-64
2023/01/18 07:29:58;;;;;;;10.65;6.65;;;-1.50;99.90;;;;;;5048496;28;20045;-65
2023/01/18 07:32:24;;;;;;;9.10;4.93;;;-1.40;99.90;;;;;;5050442;28;20409;-65
2023/01/18 07:34:49;;;;;;;13.20;6.80;;;-1.40;99.90;;;;;;5047700;28;20052;-64
2023/01/18 07:37:15;;;;;;;9.68;6.15;;;-1.40;99.90;;;;;;5050339;28;20099;-64
2023/01/18 07:39:41;;;;;;;11.93;6.80;;;-1.40;99.90;;;;;;5049539;28;20049;-65
2023/01/18 07:42:06;;;;;;;11.98;6.97;;;-1.40;99.90;;;;;;5047477;28;20040;-65
2023/01/18 07:44:32;;;;;;;14.98;7.05;;;-1.30;99.90;;;;;;5031083;28;20061;-65
2023/01/18 07:46:58;;;;;;;12.15;6.70;;;-1.30;99.90;;;;;;5029255;28;20070;-64
2023/01/18 07:49:24;;;;;;;10.63;6.65;;;-1.30;99.90;;;;;;5049771;28;20045;-65
2023/01/18 07:51:49;;;;;;;9.85;5.90;;;-1.30;99.90;;;;;;5048958;28;20114;-65
2023/01/18 07:54:17;;;;;;;13.38;7.38;;;-1.30;99.90;;;;;;5051449;28;20051;-65
2023/01/18 07:56:43;;;;;;;12.18;6.80;;;-1.20;99.90;;;;;;5047446;28;20045;-65
2023/01/18 07:59:09;;;;;;;13.77;6.55;;;-1.20;99.90;;;;;;5047994;28;20104;-64
2023/01/18 08:01:35;;;;;;;13.82;6.10;;;-1.30;99.90;;;;;;5050191;28;20562;-65
2023/01/18 08:04:00;;;;;;;9.98;6.45;;;-1.20;99.90;;;;;;5048191;28;20048;-65
2023/01/18 08:06:26;;;;;;;12.07;6.10;;;-1.20;99.90;;;;;;5044522;28;20045;-63
2023/01/18 08:08:54;;;;;;;9.63;6.18;;;-1.10;99.90;;;;;;5045023;28;20100;-64
2023/01/18 08:11:20;;;;;;;9.90;5.88;;;-1.10;99.90;;;;;;5044558;28;20052;-64
2023/01/18 08:13:47;;;;;;;11.80;6.40;;;-1.10;99.90;;;;;;5053191;28;20041;-64
2023/01/18 08:16:14;;;;;;;12.75;7.80;;;-1.00;99.90;;;;;;5050230;28;20045;-64
2023/01/18 08:18:41;;;;;;;14.43;6.10;;;-1.00;99.90;;;;;;5051257;28;20049;-65
2023/01/18 08:21:10;;;;;;;12.38;5.88;;;0.10;99.90;;;;;;5049001;28;20041;-65
2023/01/18 08:23:36;;;;;;;12.60;6.57;;;-0.60;99.90;;;;;;5051592;28;20057;-65
2023/01/18 08:26:03;;;;;;;11.95;6.60;;;-0.90;99.90;;;;;;5046361;28;20052;-66
2023/01/18 08:28:29;;;;;;;10.48;6.20;;;-0.90;99.90;;;;;;5053161;28;20133;-64
2023/01/18 08:31:13;;;;;;;11.85;6.53;;;-0.90;99.90;;;;;;5052942;28;20131;-64
2023/01/18 08:33:41;;;;;;;9.07;6.25;;;-0.90;99.90;;;;;;5052352;28;20138;-64
2023/01/18 08:36:12;;;;;;;11.82;6.25;;;-0.70;99.90;;;;;;5052379;28;20049;-64
2023/01/18 08:38:38;;;;;;;12.07;6.03;;;-0.80;99.90;;;;;;5050484;28;20088;-64
2023/01/18 08:41:04;;;;;;;12.15;7.03;;;-0.80;99.90;;;;;;5049700;28;20049;-65
2023/01/18 08:43:29;;;;;;;12.63;6.75;;;-0.80;99.90;;;;;;5034655;28;20608;-64
2023/01/18 08:45:55;;;;;;;12.13;7.30;;;-0.80;99.90;;;;;;5053952;28;20052;-65
2023/01/18 08:48:21;;;;;;;12.75;7.18;;;-0.50;99.90;;;;;;5034501;28;20084;-64
2023/01/18 08:50:46;;;;;;;14.52;7.10;;;-0.70;99.90;;;;;;5048741;28;20649;-63
2023/01/18 08:53:12;;;;;;;11.10;6.78;;;-0.70;99.90;;;;;;5052949;28;20099;-66
2023/01/18 08:55:39;;;;;;;12.63;6.43;;;-0.60;99.90;;;;;;5049429;28;20481;-65
2023/01/18 08:58:05;;;;;;;12.75;6.57;;;-0.60;99.90;;;;;;5044446;28;20055;-64
2023/01/18 09:00:32;;;;;;;12.10;7.25;;;-0.60;99.90;;;;;;5046875;28;20049;-64
2023/01/18 09:03:00;;;;;;;12.52;7.13;;;-0.60;99.90;;;;;;5051086;28;20102;-66
2023/01/18 09:05:26;;;;;;;9.15;5.93;;;-1.50;99.90;;;;;;5049550;28;20080;-66
2023/01/18 09:07:53;;;;;;;13.13;7.07;;;-0.50;99.90;;;;;;5051163;28;20044;-64
2023/01/18 09:10:20;;;;;;;14.13;7.35;;;-0.10;99.90;;;;;;5052630;28;20136;-65
2023/01/18 09:12:47;;;;;;;13.38;7.30;;;-0.40;99.90;;;;;;5050173;28;20339;-64
2023/01/18 09:15:12;;;;;;;9.00;5.63;;;-0.40;99.90;;;;;;5053297;28;20048;-64
2023/01/18 09:17:38;;;;;;;12.07;6.75;;;-0.30;99.90;;;;;;5051166;28;20564;-64
2023/01/18 09:20:08;;;;;;;10.48;6.50;;;-0.30;99.90;;;;;;5049351;28;20144;-65
2023/01/18 09:22:37;;;;;;;14.73;7.57;;;-0.20;99.90;;;;;;5050775;28;20049;-66
2023/01/18 09:25:04;;;;;;;13.43;6.70;;;0.00;99.90;;;;;;5052434;28;20049;-65
2023/01/18 09:27:30;;;;;;;10.73;5.82;;;0.40;99.90;;;;;;5052892;28;20053;-64
2023/01/18 09:29:56;;;;;;;14.07;7.63;;;0.50;99.90;;;;;;5052341;28;20041;-65
2023/01/18 09:32:24;;;;;;;13.43;7.40;;;0.70;99.90;;;;;;5048852;28;20037;-64
2023/01/18 09:34:50;;;;;;;11.88;5.47;;;2.10;99.90;;;;;;5045031;28;20052;-63
2023/01/18 09:37:16;;;;;;;13.48;6.90;;;1.40;99.90;;;;;;5050979;28;20037;-63
2023/01/18 09:39:42;;;;;;;16.17;7.60;;;1.60;99.90;;;;;;5050423;28;20029;-62
2023/01/18 09:42:17;;;;;;;10.10;6.18;;;1.80;99.90;;;;;;5046674;28;20053;-64
2023/01/18 09:44:45;;;;;;;11.40;7.15;;;1.90;99.90;;;;;;5051696;28;20040;-63
2023/01/18 09:47:17;;;;;;;11.68;6.45;;;1.90;99.90;;;;;;5048608;28;20041;-63
2023/01/18 09:49:53;;;;;;;11.32;6.50;;;1.70;99.90;;;;;;5050782;28;20049;-63
2023/01/18 09:52:31;;;;;;;11.98;6.50;;;1.70;99.90;;;;;;5048008;28;20045;-62
2023/01/18 09:55:32;;;;;;;8.88;6.35;;;1.90;99.90;;;;;;5049948;28;20056;-63
2023/01/18 09:58:29;;;;;;;11.70;6.63;;;2.10;99.90;;;;;;5049503;28;20060;-64
2023/01/18 10:01:01;;;;;;;8.70;5.82;;;2.10;99.90;;;;;;5049677;28;20319;-62
2023/01/18 10:03:55;;;;;;;8.13;5.72;;;2.30;99.90;;;;;;5048757;28;20059;-62
2023/01/18 10:06:25;;;;;;;11.13;6.72;;;2.60;99.90;;;;;;5047330;28;20033;-62
2023/01/18 10:09:00;;;;;;;11.57;6.43;;;3.10;99.90;;;;;;5049453;28;20048;-62
2023/01/18 10:11:46;;;;;;;10.48;5.35;;;3.50;99.90;;;;;;5050134;28;20049;-63
2023/01/18 10:14:34;;;;;;;14.63;6.30;;;3.80;99.90;;;;;;5049540;28;20044;-63
2023/01/18 10:17:07;;;;;;;11.52;5.90;;;3.90;99.90;;;;;;5047600;28;20087;-63
2023/01/18 10:19:33;;;;;;;10.75;6.15;;;4.60;99.90;;;;;;5048410;28;20040;-63
2023/01/18 10:22:25;;;;;;;14.15;5.65;;;5.20;99.90;;;;;;5050104;28;20049;-63
2023/01/18 10:25:05;;;;;;;11.73;5.70;;;5.50;99.90;;;;;;5048738;28;20124;-63
2023/01/18 10:27:59;;;;;;;8.40;5.13;;;5.70;99.90;;;;;;5049366;28;20041;-63
2023/01/18 10:30:26;;;;;;;8.98;5.13;;;5.90;99.90;;;;;;5047821;28;20055;-63
2023/01/18 10:32:56;;;;;;;8.18;5.07;;;6.00;99.90;;;;;;5049994;28;20785;-62
2023/01/18 10:35:28;;;;;;;10.15;5.45;;;6.00;99.90;;;;;;5048579;28;20045;-60
2023/01/18 10:37:57;;;;;;;9.18;6.65;;;6.00;99.90;;;;;;5047920;28;20421;-62
2023/01/18 10:40:23;;;;;;;10.07;5.45;;;5.80;99.90;;;;;;5050989;28;20080;-63
2023/01/18 10:43:01;;;;;;;10.40;6.18;;;5.70;99.90;;;;;;5047164;28;20041;-63
2023/01/18 10:45:29;;;;;;;6.88;4.82;;;5.70;99.90;;;;;;5048056;28;20053;-63
2023/01/18 10:47:57;;;;;;;10.07;6.10;;;5.90;99.90;;;;;;5045553;28;20041;-63
2023/01/18 10:50:35;;;;;;;9.50;5.38;;;5.90;99.90;;;;;;5048925;28;20773;-62
2023/01/18 10:53:39;;;;;;;7.03;5.07;;;5.50;99.90;;;;;;5050164;28;20052;-63
2023/01/18 10:56:18;;;;;;;9.02;5.85;;;4.80;99.90;;;;;;5037652;28;20044;-64
2023/01/18 10:58:49;;;;;;;10.32;5.97;;;4.10;99.90;;;;;;5045555;28;20637;-62
2023/01/18 11:01:21;;;;;;;15.57;6.40;;;3.90;99.90;;;;;;5043543;28;20044;-63
2023/01/18 11:04:11;;;;;;;9.10;5.82;;;4.10;99.90;;;;;;5045702;28;20048;-63
2023/01/18 11:06:48;;;;;;;11.35;6.88;;;4.10;99.90;;;;;;5046428;28;20483;-63
2023/01/18 11:09:33;;;;;;;9.55;6.47;;;3.80;99.90;;;;;;5043955;28;20071;-62
2023/01/18 11:12:32;;;;;;;12.20;6.22;;;3.60;99.90;;;;;;5027991;28;20699;-62
2023/01/18 11:15:25;;;;;;;9.93;6.90;;;3.40;99.90;;;;;;5045654;28;20126;-62
2023/01/18 11:17:56;;;;;;;12.35;6.47;;;3.90;99.90;;;;;;5048626;28;20487;-63
2023/01/18 11:20:28;;;;;;;8.63;5.88;;;4.50;99.90;;;;;;5048793;28;20374;-64
2023/01/18 11:23:13;;;;;;;10.43;6.30;;;4.60;99.90;;;;;;5045255;28;20052;-64
2023/01/18 11:25:44;;;;;;;;;;;5.10;99.90;;;;;;5044755;28;20110;-63
2023/01/18 11:28:35;;;;;;;9.57;6.30;;;4.80;99.90;;;;;;5050798;28;19921;-64
2023/01/18 11:31:44;;;;;;;19.05;7.07;;;5.60;99.90;;;;;;5042891;28;20072;-63
2023/01/18 11:34:27;;;;;;;8.75;6.20;;;6.30;99.90;;;;;;5045719;28;20543;-62
2023/01/18 11:36:54;;;;;;;9.77;5.80;;;6.50;99.90;;;;;;5043932;28;20059;-62
2023/01/18 11:39:34;;;;;;;9.20;5.50;;;6.60;99.90;;;;;;5045298;28;20109;-62
2023/01/18 11:42:21;;;;;;;8.98;5.65;;;6.70;99.90;;;;;;5047795;28;20048;-62
2023/01/18 11:44:57;;;;;;;11.57;5.97;;;6.40;99.90;;;;;;5050444;28;20049;-62
2023/01/18 11:47:31;;;;;;;7.82;5.63;;;6.10;99.90;;;;;;5047918;28;20045;-62
2023/01/18 11:50:32;;;;;;;10.15;5.35;;;6.40;99.90;;;;;;5048472;28;20052;-62
2023/01/18 11:53:03;;;;;;;10.65;5.30;;;6.70;99.90;;;;;;5029957;28;20587;-62
2023/01/18 11:55:36;;;;;;;7.07;4.32;;;6.70;99.90;;;;;;5047756;28;20071;-62
2023/01/18 11:58:06;;;;;;;7.97;4.95;;;6.90;99.90;;;;;;5048023;28;20049;-62
2023/01/18 12:00:48;;;;;;;8.98;4.88;;;7.00;99.90;;;;;;5048212;28;20045;-60
2023/01/18 12:03:40;;;;;;;9.60;5.40;;;7.20;99.90;;;;;;5049912;28;20037;-62
2023/01/18 12:06:30;;;;;;;5.05;3.72;;;6.90;99.90;;;;;;5046575;28;20090;-62
2023/01/18 12:09:22;;;;;;;10.30;5.03;;;6.70;99.90;;;;;;5043226;28;20045;-62
2023/01/18 12:12:08;;;;;;;7.55;4.57;;;6.50;99.90;;;;;;5043582;28;20059;-61
2023/01/18 12:15:09;;;;;;;9.63;4.53;;;6.20;99.90;;;;;;5031551;28;20048;-61
2023/01/18 12:18:06;;;;;;;6.70;3.90;;;6.00;99.90;;;;;;5046604;28;20049;-61
2023/01/18 12:20:37;;;;;;;;;;;6.00;99.90;;;;;;5049753;28;20044;-61
2023/01/18 12:23:38;;;;;;;9.18;4.05;;;5.90;99.90;;;;;;5048195;28;19964;-61
2023/01/18 12:26:32;;;;;;;7.53;4.28;;;5.50;99.90;;;;;;5044975;28;20049;-60
2023/01/18 12:29:07;;;;;;;7.40;3.88;;;5.50;99.90;;;;;;5048704;28;20782;-60
2023/01/18 12:32:10;;;;;;;8.75;4.10;;;5.60;99.90;;;;;;5044660;28;20041;-61
2023/01/18 12:34:54;;;;;;;6.95;4.00;;;5.80;99.90;;;;;;5045868;28;20088;-61
2023/01/18 12:37:34;;;;;;;6.43;3.80;;;5.60;99.90;;;;;;5048378;28;20470;-61
2023/01/18 12:40:07;;;;;;;7.15;3.65;;;5.40;99.90;;;;;;5048627;28;20773;-62
2023/01/18 12:42:54;;;;;;;6.50;3.63;;;5.10;99.90;;;;;;5045408;28;20041;-60
2023/01/18 12:45:37;;;;;;;7.82;4.05;;;4.90;99.90;;;;;;5047678;28;20124;-61
2023/01/18 12:48:18;;;;;;;7.18;3.83;;;4.80;99.90;;;;;;5045635;28;20087;-60
2023/01/18 12:50:48;;;;;;;6.38;4.03;;;5.80;99.90;;;;;;5047301;28;20369;-60
2023/01/18 12:53:17;;;;;;;7.43;3.70;;;5.30;99.90;;;;;;5049205;28;20048;-61
2023/01/18 12:55:48;;;;;;;7.75;3.72;;;5.60;99.90;;;;;;5045288;28;20044;-61
2023/01/18 12:58:20;;;;;;;7.43;2.55;;;5.90;99.90;;;;;;5051590;28;20097;-60
2023/01/18 13:00:52;;;;;;;8.43;3.35;;;6.20;99.90;;;;;;5046102;28;20084;-61
2023/01/18 13:03:22;;;;;;;6.63;3.15;;;6.60;99.90;;;;;;5052688;28;20055;-61
2023/01/18 13:05:57;;;;;;;6.57;3.53;;;6.40;99.90;;;;;;5050928;28;20040;-62
2023/01/18 13:08:47;;;;;;;7.82;3.60;;;6.20;99.90;;;;;;5048357;28;20049;-61
2023/01/18 13:11:32;;;;;;;10.48;3.85;;;6.10;99.90;;;;;;5052753;28;20055;-60
2023/01/18 13:14:25;;;;;;;7.45;3.22;;;6.10;99.90;;;;;;5036672;28;20126;-59
2023/01/18 13:17:00;;;;;;;4.70;3.20;;;6.40;99.90;;;;;;5045232;28;20817;-60
2023/01/18 13:19:38;;;;;;;7.27;3.23;;;6.60;99.90;;;;;;5039404;28;20551;-60
2023/01/18 13:22:25;;;;;;;7.28;3.55;;;6.60;99.90;;;;;;5043380;28;20887;-61
2023/01/18 13:25:21;;;;;;;9.23;3.63;;;6.60;99.90;;;;;;5044868;28;20056;-62
2023/01/18 13:27:56;;;;;;;10.45;3.03;;;6.40;99.90;;;;;;5044390;28;20056;-62
2023/01/18 13:30:23;;;;;;;4.78;3.03;;;6.10;99.90;;;;;;5041572;28;20044;-61
2023/01/18 13:32:50;;;;;;;7.30;3.53;;;6.00;99.90;;;;;;5044534;28;20055;-60
2023/01/18 13:35:30;;;;;;;8.48;3.60;;;5.80;99.90;;;;;;5044332;28;20044;-60
2023/01/18 13:38:09;;;;;;;6.13;3.13;;;5.70;99.90;;;;;;5039884;28;20053;-60